Time;durP1;ratioP1;P1;durP2;ratioP2;P2;SDS_P1;SDS_P2;PMS_P1;PMS_P2;Temp;Humidity;BMP_temperature;BMP_pressure;BME280_temperature;BME280_humidity;BME280_pressure;Samples;Min_cycle;Max_cycle;Signal;HPM_P1;HPM_P2
2021/12/25 00:01:30;;;;;;;9.63;1.42;;;;;;;;;;5088038;28;20040;-60
2021/12/25 00:03:57;;;;;;;2.70;0.93;;;;;;;;;;5082747;28;20116;-60
2021/12/25 00:06:24;;;;;;;5.45;0.90;;;;;;;;;;5082466;28;20119;-59
2021/12/25 00:08:51;;;;;;;6.45;1.63;;;;;;;;;;5082631;28;20080;-59
2021/12/25 00:11:17;;;;;;;8.93;1.05;;;;;;;;;;5084801;28;20143;-60
2021/12/25 00:13:44;;;;;;;4.53;1.67;;;;;;;;;;5087389;28;20131;-60
2021/12/25 00:16:10;;;;;;;4.35;0.95;;;;;;;;;;5089790;28;20115;-60
2021/12/25 00:18:38;;;;;;;4.93;1.00;;;;;;;;;;5083948;28;20127;-60
2021/12/25 00:21:04;;;;;;;5.72;1.00;;;;;;;;;;5080493;28;20052;-60
2021/12/25 00:23:31;;;;;;;4.60;0.90;;;;;;;;;;5085667;28;20377;-60
2021/12/25 00:26:03;;;;;;;10.38;1.60;;;;;;;;;;5088118;28;20055;-59
2021/12/25 00:33:50;;;;;;;3.75;0.90;;;;;;;;;;5087852;28;20411;-59
2021/12/25 00:36:17;;;;;;;4.15;0.77;;;;;;;;;;5089000;28;20102;-59
2021/12/25 00:38:44;;;;;;;5.57;1.10;;;;;;;;;;5085253;28;20122;-60
2021/12/25 00:41:11;;;;;;;6.28;1.30;;;;;;;;;;5089486;28;20059;-60
2021/12/25 00:43:37;;;;;;;5.57;0.98;;;;;;;;;;5087265;28;20480;-60
2021/12/25 00:46:04;;;;;;;4.43;0.80;;;;;;;;;;5087359;28;20364;-60
2021/12/25 00:48:30;;;;;;;4.88;0.80;;;;;;;;;;5083831;28;20056;-60
2021/12/25 00:50:57;;;;;;;6.55;1.10;;;;;;;;;;5077422;28;20094;-59
2021/12/25 00:53:23;;;;;;;5.95;1.13;;;;;;;;;;5081220;28;20044;-59
2021/12/25 00:55:49;;;;;;;7.60;0.93;;;;;;;;;;5081217;28;20150;-60
2021/12/25 00:58:16;;;;;;;6.55;2.17;;;;;;;;;;5089266;28;20044;-59
2021/12/25 01:00:43;;;;;;;6.03;0.98;;;;;;;;;;5087322;28;20413;-60
2021/12/25 01:03:09;;;;;;;3.33;0.80;;;;;;;;;;5088477;28;20044;-60
2021/12/25 01:05:36;;;;;;;7.72;1.08;;;;;;;;;;5083421;28;20127;-59
2021/12/25 01:08:02;;;;;;;6.32;1.30;;;;;;;;;;5086595;28;20066;-59
2021/12/25 01:10:29;;;;;;;2.85;1.30;;;;;;;;;;5085530;28;20050;-59
2021/12/25 01:15:29;;;;;;;4.00;0.80;;;;;;;;;;5086783;28;20044;-60
2021/12/25 01:23:46;;;;;;;4.10;0.95;;;;;;;;;;5089092;28;20048;-59
2021/12/25 01:26:31;;;;;;;6.68;1.63;;;;;;;;;;5082232;28;20052;-59
2021/12/25 01:31:43;;;;;;;4.47;1.00;;;;;;;;;;5087929;28;20502;-60
2021/12/25 01:36:56;;;;;;;7.45;1.08;;;;;;;;;;5082370;28;20500;-60
2021/12/25 01:49:54;;;;;;;9.10;1.25;;;;;;;;;;5081142;28;20076;-59
2021/12/25 01:52:26;;;;;;;7.00;1.20;;;;;;;;;;5084887;28;20047;-59
2021/12/25 01:54:52;;;;;;;6.75;1.00;;;;;;;;;;5072933;28;20044;-60
2021/12/25 01:57:19;;;;;;;6.07;2.38;;;;;;;;;;5083640;28;20336;-59
2021/12/25 01:59:45;;;;;;;4.25;0.90;;;;;;;;;;5089833;28;20495;-59
2021/12/25 02:02:11;;;;;;;6.63;1.13;;;;;;;;;;5090205;28;20040;-60
2021/12/25 02:04:37;;;;;;;8.80;2.10;;;;;;;;;;5084323;28;20507;-59
2021/12/25 02:07:04;;;;;;;4.03;1.00;;;;;;;;;;5087781;28;20533;-60
2021/12/25 02:09:30;;;;;;;6.50;1.33;;;;;;;;;;5091778;28;20574;-59
2021/12/25 02:11:56;;;;;;;7.75;2.08;;;;;;;;;;5088034;28;20067;-59
2021/12/25 02:14:22;;;;;;;5.38;1.30;;;;;;;;;;5086286;28;20037;-60
2021/12/25 02:16:57;;;;;;;3.60;1.20;;;;;;;;;;5091542;28;20040;-59
2021/12/25 02:19:37;;;;;;;5.63;1.30;;;;;;;;;;5106125;28;20395;-59
2021/12/25 02:22:03;;;;;;;5.80;1.15;;;;;;;;;;5084740;28;20048;-59
2021/12/25 02:24:30;;;;;;;4.78;1.02;;;;;;;;;;5091702;28;20048;-59
2021/12/25 02:26:57;;;;;;;3.20;0.77;;;;;;;;;;5089135;28;20045;-59
2021/12/25 02:29:23;;;;;;;8.25;2.65;;;;;;;;;;5086270;28;20028;-59
2021/12/25 02:31:49;;;;;;;2.85;0.80;;;;;;;;;;5087269;28;20044;-59
2021/12/25 02:34:16;;;;;;;6.38;1.58;;;;;;;;;;5091127;28;20074;-59
2021/12/25 02:36:42;;;;;;;4.50;0.80;;;;;;;;;;5086185;28;20089;-60
2021/12/25 02:39:08;;;;;;;4.50;0.82;;;;;;;;;;5085771;28;20051;-60
2021/12/25 02:41:34;;;;;;;3.88;1.20;;;;;;;;;;5090503;28;20155;-59
2021/12/25 02:44:01;;;;;;;2.53;0.70;;;;;;;;;;5091068;28;20068;-59
2021/12/25 02:46:27;;;;;;;10.00;0.85;;;;;;;;;;5091231;28;20123;-59
2021/12/25 02:48:56;;;;;;;3.15;0.60;;;;;;;;;;5088803;28;20048;-60
2021/12/25 02:51:22;;;;;;;2.80;1.10;;;;;;;;;;5091295;28;20047;-59
2021/12/25 02:53:48;;;;;;;5.75;0.90;;;;;;;;;;5084642;28;20111;-59
2021/12/25 02:56:14;;;;;;;4.88;0.80;;;;;;;;;;5077406;28;20093;-60
2021/12/25 02:58:40;;;;;;;1.38;0.57;;;;;;;;;;5077619;28;20556;-59
2021/12/25 03:01:09;;;;;;;3.05;1.10;;;;;;;;;;5082901;28;20384;-59
2021/12/25 03:03:35;;;;;;;3.90;0.85;;;;;;;;;;5088906;28;20048;-59
2021/12/25 03:06:03;;;;;;;2.15;0.85;;;;;;;;;;5090786;28;20028;-59
2021/12/25 03:08:29;;;;;;;3.25;0.55;;;;;;;;;;5089528;28;20048;-59
2021/12/25 03:10:55;;;;;;;4.15;0.60;;;;;;;;;;5085584;28;20447;-59
2021/12/25 03:13:33;;;;;;;4.65;0.60;;;;;;;;;;5087790;28;20040;-59
2021/12/25 03:16:00;;;;;;;1.17;0.60;;;;;;;;;;5084518;28;20047;-60
2021/12/25 03:18:27;;;;;;;2.20;0.60;;;;;;;;;;5088539;28;20570;-59
2021/12/25 03:20:58;;;;;;;2.78;0.73;;;;;;;;;;5089933;28;20033;-60
2021/12/25 03:23:25;;;;;;;1.65;0.60;;;;;;;;;;5088492;28;20040;-59
2021/12/25 03:25:52;;;;;;;6.40;0.68;;;;;;;;;;5089444;28;20176;-59
2021/12/25 03:28:21;;;;;;;4.30;0.80;;;;;;;;;;5080383;28;20040;-59
2021/12/25 03:30:47;;;;;;;3.15;0.80;;;;;;;;;;5089978;28;20051;-59
2021/12/25 03:33:14;;;;;;;2.85;0.65;;;;;;;;;;5090926;28;20372;-59
2021/12/25 03:35:41;;;;;;;1.33;0.40;;;;;;;;;;5085137;28;20040;-59
2021/12/25 03:38:09;;;;;;;3.97;0.45;;;;;;;;;;5086715;28;20468;-60
2021/12/25 03:40:35;;;;;;;2.55;0.40;;;;;;;;;;5088463;28;20055;-59
2021/12/25 03:43:01;;;;;;;3.03;0.70;;;;;;;;;;5086505;28;20047;-59
2021/12/25 03:45:30;;;;;;;3.53;0.60;;;;;;;;;;5082333;28;20051;-60
2021/12/25 03:48:07;;;;;;;1.70;0.60;;;;;;;;;;5086196;28;20060;-59
2021/12/25 03:53:37;;;;;;;2.78;0.50;;;;;;;;;;5086570;28;20337;-60
2021/12/25 03:58:50;;;;;;;2.78;0.57;;;;;;;;;;5079954;28;20049;-59
2021/12/25 04:01:43;;;;;;;1.95;0.50;;;;;;;;;;5083925;28;20071;-59
2021/12/25 04:04:16;;;;;;;1.98;0.40;;;;;;;;;;5083730;28;20059;-60
2021/12/25 04:06:47;;;;;;;5.32;0.77;;;;;;;;;;5085234;28;20036;-59
2021/12/25 04:09:23;;;;;;;5.18;0.90;;;;;;;;;;5079295;28;20075;-59
2021/12/25 04:11:49;;;;;;;2.85;0.50;;;;;;;;;;5078176;28;20469;-60
2021/12/25 04:14:16;;;;;;;0.93;0.40;;;;;;;;;;5089028;28;20123;-59
2021/12/25 04:16:42;;;;;;;2.90;0.50;;;;;;;;;;5081606;28;20044;-59
2021/12/25 04:19:09;;;;;;;4.22;1.30;;;;;;;;;;5084827;28;20052;-59
2021/12/25 04:21:36;;;;;;;0.40;0.30;;;;;;;;;;5085665;28;20391;-59
2021/12/25 04:24:02;;;;;;;2.15;1.15;;;;;;;;;;5083213;28;20047;-59
2021/12/25 04:26:29;;;;;;;3.60;0.50;;;;;;;;;;5088212;28;20111;-59
2021/12/25 04:32:14;;;;;;;3.50;0.47;;;;;;;;;;5088620;28;20056;-60
2021/12/25 04:47:49;;;;;;;3.90;0.68;;;;;;;;;;5083698;28;20071;-59
2021/12/25 05:04:48;;;;;;;3.97;0.77;;;;;;;;;;5082174;28;20044;-59
2021/12/25 05:07:14;;;;;;;2.05;0.52;;;;;;;;;;5085671;28;20051;-59
2021/12/25 05:09:40;;;;;;;3.03;0.70;;;;;;;;;;5080942;28;20068;-59
2021/12/25 05:12:07;;;;;;;1.85;0.70;;;;;;;;;;5080467;28;20036;-59
2021/12/25 05:14:33;;;;;;;1.20;0.60;;;;;;;;;;5086890;28;20036;-59
2021/12/25 05:17:00;;;;;;;1.02;0.35;;;;;;;;;;5083953;28;20491;-60
2021/12/25 05:19:26;;;;;;;1.42;0.50;;;;;;;;;;5080888;28;20041;-59
2021/12/25 05:21:52;;;;;;;1.88;0.50;;;;;;;;;;5084431;28;20044;-59
2021/12/25 05:24:18;;;;;;;2.63;0.57;;;;;;;;;;5085933;28;20035;-59
2021/12/25 05:26:44;;;;;;;1.38;0.50;;;;;;;;;;5085388;28;20487;-59
2021/12/25 05:29:11;;;;;;;1.58;0.60;;;;;;;;;;5093600;28;20160;-60
2021/12/25 05:31:37;;;;;;;3.10;0.50;;;;;;;;;;5083728;28;20088;-59
2021/12/25 05:34:04;;;;;;;0.77;0.40;;;;;;;;;;5080972;28;20170;-59
2021/12/25 05:36:31;;;;;;;2.92;0.68;;;;;;;;;;5086626;28;20036;-60
2021/12/25 05:38:59;;;;;;;2.28;0.52;;;;;;;;;;5081365;28;20109;-59
2021/12/25 05:41:27;;;;;;;1.95;0.63;;;;;;;;;;5087123;28;20071;-59
2021/12/25 05:43:54;;;;;;;9.60;1.05;;;;;;;;;;5083388;28;20040;-59
2021/12/25 05:46:20;;;;;;;2.95;0.90;;;;;;;;;;5083997;28;20056;-59
2021/12/25 05:48:49;;;;;;;2.42;0.60;;;;;;;;;;5087146;28;20052;-59
2021/12/25 05:51:16;;;;;;;3.58;0.68;;;;;;;;;;5076557;28;20102;-59
2021/12/25 05:53:42;;;;;;;4.55;0.60;;;;;;;;;;5085196;28;20041;-59
2021/12/25 05:56:09;;;;;;;1.83;0.70;;;;;;;;;;5080108;28;20075;-59
2021/12/25 05:58:35;;;;;;;3.28;0.60;;;;;;;;;;5084469;28;20046;-59
2021/12/25 06:01:02;;;;;;;1.25;0.40;;;;;;;;;;5074678;28;20111;-59
2021/12/25 06:03:28;;;;;;;2.47;0.70;;;;;;;;;;5080908;28;20126;-59
2021/12/25 06:05:55;;;;;;;0.82;0.45;;;;;;;;;;5085311;28;20545;-59
2021/12/25 06:08:21;;;;;;;4.15;0.80;;;;;;;;;;5078341;28;20514;-59
2021/12/25 06:10:47;;;;;;;4.07;0.93;;;;;;;;;;5080753;28;20135;-60
2021/12/25 06:13:18;;;;;;;4.22;0.70;;;;;;;;;;5081281;28;20386;-59
2021/12/25 06:15:44;;;;;;;1.98;0.65;;;;;;;;;;5077869;28;20138;-60
2021/12/25 06:18:10;;;;;;;1.42;0.43;;;;;;;;;;5085417;28;20668;-60
2021/12/25 06:20:37;;;;;;;3.33;0.90;;;;;;;;;;5079383;28;20044;-60
2021/12/25 06:23:03;;;;;;;2.85;0.40;;;;;;;;;;5080838;28;20510;-60
2021/12/25 06:25:29;;;;;;;2.28;0.85;;;;;;;;;;5078457;28;20101;-60
2021/12/25 06:27:56;;;;;;;3.80;0.80;;;;;;;;;;5075397;28;20086;-60
2021/12/25 06:30:22;;;;;;;2.53;0.60;;;;;;;;;;5076994;28;20032;-60
2021/12/25 06:32:48;;;;;;;3.17;0.50;;;;;;;;;;5079797;28;20072;-60
2021/12/25 06:35:14;;;;;;;1.70;0.63;;;;;;;;;;5078458;28;20051;-59
2021/12/25 06:37:44;;;;;;;1.80;0.57;;;;;;;;;;5078956;28;20045;-60
2021/12/25 06:40:11;;;;;;;0.47;0.30;;;;;;;;;;5080169;28;20055;-60
2021/12/25 06:42:38;;;;;;;1.60;0.50;;;;;;;;;;5075921;28;20150;-60
2021/12/25 06:45:05;;;;;;;2.03;0.50;;;;;;;;;;5073478;28;20048;-60
2021/12/25 06:47:31;;;;;;;4.22;0.52;;;;;;;;;;5076797;28;20040;-60
2021/12/25 06:49:57;;;;;;;3.60;0.60;;;;;;;;;;5081670;28;20048;-61
2021/12/25 06:52:23;;;;;;;1.45;0.98;;;;;;;;;;5085181;28;20138;-61
2021/12/25 06:54:50;;;;;;;1.05;0.60;;;;;;;;;;5087087;28;20121;-61
2021/12/25 06:57:18;;;;;;;6.45;1.52;;;;;;;;;;5079468;28;20112;-61
2021/12/25 06:59:44;;;;;;;5.00;0.90;;;;;;;;;;5082998;28;20101;-61
2021/12/25 07:02:12;;;;;;;4.75;0.60;;;;;;;;;;5075918;28;20090;-60
2021/12/25 07:04:38;;;;;;;3.80;0.65;;;;;;;;;;5078244;28;20121;-60
2021/12/25 07:07:04;;;;;;;2.67;0.70;;;;;;;;;;5077448;28;20052;-61
2021/12/25 07:09:30;;;;;;;7.18;0.65;;;;;;;;;;5082602;28;20147;-61
2021/12/25 07:11:57;;;;;;;2.30;0.60;;;;;;;;;;5078768;28;20442;-64
2021/12/25 07:14:23;;;;;;;5.70;0.60;;;;;;;;;;5085901;28;20131;-61
2021/12/25 07:16:49;;;;;;;2.22;0.60;;;;;;;;;;5083693;28;20082;-61
2021/12/25 07:19:16;;;;;;;3.25;0.80;;;;;;;;;;5080780;28;20462;-61
2021/12/25 07:21:43;;;;;;;1.73;0.40;;;;;;;;;;5086712;28;20364;-61
2021/12/25 07:24:09;;;;;;;3.97;0.73;;;;;;;;;;5084585;28;20105;-61
2021/12/25 07:26:36;;;;;;;1.45;0.68;;;;;;;;;;5087357;28;20043;-61
2021/12/25 07:29:03;;;;;;;2.45;0.90;;;;;;;;;;5082024;28;20369;-61
2021/12/25 07:31:29;;;;;;;4.53;0.82;;;;;;;;;;5083431;28;20556;-62
2021/12/25 07:33:55;;;;;;;4.05;0.68;;;;;;;;;;5090532;28;20043;-61
2021/12/25 07:36:23;;;;;;;3.33;0.60;;;;;;;;;;5087326;28;20043;-61
2021/12/25 07:38:50;;;;;;;1.60;0.50;;;;;;;;;;5083992;28;20102;-61
2021/12/25 07:41:17;;;;;;;6.90;1.17;;;;;;;;;;5084943;28;20071;-61
2021/12/25 07:43:43;;;;;;;4.30;0.80;;;;;;;;;;5083040;28;20036;-61
2021/12/25 07:46:09;;;;;;;3.78;0.57;;;;;;;;;;5082290;28;20032;-61
2021/12/25 07:48:35;;;;;;;7.00;1.13;;;;;;;;;;5080431;28;20087;-62
2021/12/25 07:51:02;;;;;;;2.53;0.85;;;;;;;;;;5085890;28;20543;-62
2021/12/25 07:53:30;;;;;;;2.55;0.73;;;;;;;;;;5078147;28;20527;-61
2021/12/25 07:55:56;;;;;;;3.15;0.60;;;;;;;;;;5077368;28;20044;-61
2021/12/25 07:58:22;;;;;;;7.90;1.45;;;;;;;;;;5075993;28;20456;-70
2021/12/25 08:00:48;;;;;;;7.55;1.30;;;;;;;;;;5078482;28;20037;-63
2021/12/25 08:03:16;;;;;;;2.17;0.65;;;;;;;;;;5076032;28;20142;-63
2021/12/25 08:05:43;;;;;;;3.00;0.77;;;;;;;;;;5082415;28;20114;-63
2021/12/25 08:08:11;;;;;;;2.33;0.70;;;;;;;;;;5079366;28;20074;-63
2021/12/25 08:10:38;;;;;;;1.88;0.60;;;;;;;;;;5078804;28;20188;-69
2021/12/25 08:13:04;;;;;;;3.47;1.30;;;;;;;;;;5075247;28;20129;-62
2021/12/25 08:15:31;;;;;;;5.82;1.02;;;;;;;;;;5084524;28;20048;-64
2021/12/25 08:17:58;;;;;;;2.22;0.70;;;;;;;;;;5082360;28;20043;-61
2021/12/25 08:20:24;;;;;;;2.85;0.82;;;;;;;;;;5074654;28;20040;-61
2021/12/25 08:22:51;;;;;;;5.90;0.73;;;;;;;;;;5086403;28;20040;-61
2021/12/25 08:25:17;;;;;;;4.68;0.88;;;;;;;;;;5083407;28;20514;-61
2021/12/25 08:27:45;;;;;;;2.53;0.52;;;;;;;;;;5080005;28;20039;-61
2021/12/25 08:30:13;;;;;;;3.03;0.70;;;;;;;;;;5082095;28;20040;-62
2021/12/25 08:32:40;;;;;;;7.72;1.90;;;;;;;;;;5085400;28;20047;-62
2021/12/25 08:35:07;;;;;;;4.55;0.70;;;;;;;;;;5082410;28;20040;-61
2021/12/25 08:37:34;;;;;;;2.15;0.68;;;;;;;;;;5099650;28;20380;-61
2021/12/25 08:40:00;;;;;;;3.05;0.50;;;;;;;;;;5076038;28;20043;-62
2021/12/25 08:42:27;;;;;;;1.80;0.80;;;;;;;;;;5076475;28;20066;-61
2021/12/25 08:45:05;;;;;;;3.40;0.73;;;;;;;;;;5081528;28;20132;-61
2021/12/25 08:47:34;;;;;;;3.10;0.90;;;;;;;;;;5083068;28;20456;-62
2021/12/25 08:50:01;;;;;;;4.20;0.80;;;;;;;;;;5078779;28;20036;-63
2021/12/25 08:52:27;;;;;;;7.45;1.45;;;;;;;;;;5082633;28;20353;-62
2021/12/25 08:54:54;;;;;;;5.03;1.02;;;;;;;;;;5081057;28;20040;-62
2021/12/25 08:57:21;;;;;;;5.30;1.40;;;;;;;;;;5082975;28;20263;-62
2021/12/25 08:59:47;;;;;;;7.57;0.70;;;;;;;;;;5076145;28;20044;-62
2021/12/25 09:02:16;;;;;;;2.42;0.70;;;;;;;;;;5075266;28;20451;-62
2021/12/25 09:04:43;;;;;;;5.82;0.80;;;;;;;;;;5078127;28;20088;-62
2021/12/25 09:07:10;;;;;;;2.05;0.70;;;;;;;;;;5078560;28;20048;-63
2021/12/25 09:09:36;;;;;;;2.97;0.77;;;;;;;;;;5074790;28;20185;-63
2021/12/25 09:12:03;;;;;;;8.70;1.40;;;;;;;;;;5076642;28;20059;-63
2021/12/25 09:14:29;;;;;;;3.05;0.88;;;;;;;;;;5080941;28;20051;-63
2021/12/25 09:16:56;;;;;;;2.22;0.73;;;;;;;;;;5085193;28;20036;-63
2021/12/25 09:19:22;;;;;;;8.25;1.08;;;;;;;;;;5085739;28;20048;-63
2021/12/25 09:21:49;;;;;;;2.60;0.50;;;;;;;;;;5080248;28;20089;-63
2021/12/25 09:24:16;;;;;;;2.17;0.70;;;;;;;;;;5076318;28;20116;-63
2021/12/25 09:26:43;;;;;;;6.95;1.17;;;;;;;;;;5074793;28;20111;-63
2021/12/25 09:29:09;;;;;;;3.15;0.77;;;;;;;;;;5077405;28;20048;-64
2021/12/25 09:31:36;;;;;;;3.72;0.70;;;;;;;;;;5080775;28;20044;-64
2021/12/25 09:34:02;;;;;;;3.28;0.93;;;;;;;;;;5063419;28;20079;-63
2021/12/25 09:36:30;;;;;;;5.78;0.80;;;;;;;;;;5076653;28;20089;-63
2021/12/25 09:38:56;;;;;;;4.28;0.65;;;;;;;;;;5083154;28;20446;-62
2021/12/25 09:41:23;;;;;;;2.30;0.65;;;;;;;;;;5080607;28;20062;-63
2021/12/25 09:43:49;;;;;;;5.07;0.93;;;;;;;;;;5079795;28;20036;-63
2021/12/25 09:46:17;;;;;;;4.07;0.80;;;;;;;;;;5091487;28;20029;-62
2021/12/25 09:48:43;;;;;;;2.85;0.82;;;;;;;;;;5080085;28;20044;-62
2021/12/25 09:51:10;;;;;;;5.57;0.80;;;;;;;;;;5078556;28;20068;-63
2021/12/25 09:53:36;;;;;;;3.78;0.88;;;;;;;;;;5080746;28;20115;-62
2021/12/25 09:56:03;;;;;;;2.90;0.98;;;;;;;;;;5076085;28;20496;-62
2021/12/25 09:58:29;;;;;;;4.45;0.90;;;;;;;;;;5078822;28;20052;-62
2021/12/25 10:00:57;;;;;;;7.18;1.02;;;;;;;;;;5079966;28;20101;-63
2021/12/25 10:03:24;;;;;;;10.57;0.98;;;;;;;;;;5080392;28;20055;-62
2021/12/25 10:05:51;;;;;;;7.40;0.90;;;;;;;;;;5083186;28;20036;-62
2021/12/25 10:08:20;;;;;;;2.97;0.77;;;;;;;;;;5093097;28;20095;-62
2021/12/25 10:10:49;;;;;;;5.07;0.90;;;;;;;;;;5083503;28;20066;-65
2021/12/25 10:13:18;;;;;;;4.72;0.90;;;;;;;;;;5077858;28;20072;-62
2021/12/25 10:15:44;;;;;;;2.90;1.00;;;;;;;;;;5093937;28;20058;-62
2021/12/25 10:18:10;;;;;;;2.30;0.85;;;;;;;;;;5079111;28;20120;-62
2021/12/25 10:20:37;;;;;;;1.63;0.55;;;;;;;;;;5094918;28;20047;-62
2021/12/25 10:23:08;;;;;;;4.20;0.60;;;;;;;;;;5089641;28;20040;-62
2021/12/25 10:25:44;;;;;;;3.42;0.95;;;;;;;;;;5090051;28;20087;-62
2021/12/25 10:28:11;;;;;;;5.75;0.90;;;;;;;;;;5090837;27;20509;-61
2021/12/25 10:30:49;;;;;;;4.93;1.27;;;;;;;;;;5090191;28;20402;-61
2021/12/25 10:33:24;;;;;;;5.43;0.95;;;;;;;;;;5089730;28;20094;-61
2021/12/25 10:35:50;;;;;;;2.63;0.82;;;;;;;;;;5085928;28;20052;-61
2021/12/25 10:38:17;;;;;;;6.25;0.90;;;;;;;;;;5091549;28;20050;-61
2021/12/25 10:40:43;;;;;;;3.40;0.73;;;;;;;;;;5089820;28;20428;-61
2021/12/25 10:43:19;;;;;;;5.32;2.35;;;;;;;;;;5081336;28;20052;-61
2021/12/25 10:45:58;;;;;;;3.35;0.80;;;;;;;;;;5095262;28;20115;-61
2021/12/25 10:48:30;;;;;;;4.53;0.70;;;;;;;;;;5088695;28;20134;-61
2021/12/25 10:50:57;;;;;;;8.50;0.60;;;;;;;;;;5082961;28;20144;-61
2021/12/25 10:53:25;;;;;;;2.25;0.88;;;;;;;;;;5088571;28;20044;-61
2021/12/25 10:55:51;;;;;;;3.10;0.73;;;;;;;;;;5088045;28;20055;-63
2021/12/25 10:58:19;;;;;;;3.92;0.85;;;;;;;;;;5088642;28;20039;-61
2021/12/25 11:00:49;;;;;;;3.65;0.80;;;;;;;;;;5087285;28;20185;-61
2021/12/25 11:03:15;;;;;;;6.13;0.95;;;;;;;;;;5092731;28;20040;-61
2021/12/25 11:05:46;;;;;;;6.43;0.90;;;;;;;;;;5090738;28;20162;-68
2021/12/25 11:08:12;;;;;;;7.00;0.70;;;;;;;;;;5085806;28;20083;-61
2021/12/25 11:10:44;;;;;;;1.92;0.60;;;;;;;;;;5089685;28;20051;-61
2021/12/25 11:13:18;;;;;;;2.03;0.80;;;;;;;;;;5093945;28;20044;-61
2021/12/25 11:15:44;;;;;;;2.08;0.73;;;;;;;;;;5083273;28;20147;-61
2021/12/25 11:18:12;;;;;;;5.70;1.00;;;;;;;;;;5093717;28;20041;-61
2021/12/25 11:20:40;;;;;;;7.93;1.00;;;;;;;;;;5083581;28;20552;-61
2021/12/25 11:23:09;;;;;;;1.83;0.80;;;;;;;;;;5087735;28;20107;-60
2021/12/25 11:25:36;;;;;;;3.10;0.90;;;;;;;;;;5090310;28;20111;-61
2021/12/25 11:28:06;;;;;;;2.67;0.88;;;;;;;;;;5086064;28;20040;-61
2021/12/25 11:30:34;;;;;;;3.35;0.90;;;;;;;;;;5091805;28;20044;-61
2021/12/25 11:33:00;;;;;;;3.00;0.70;;;;;;;;;;5085235;28;20491;-71
2021/12/25 11:35:26;;;;;;;2.67;1.15;;;;;;;;;;5078391;28;20510;-71
2021/12/25 11:37:55;;;;;;;2.58;1.00;;;;;;;;;;5095459;28;20113;-67
2021/12/25 11:40:23;;;;;;;4.18;0.80;;;;;;;;;;5090989;28;20036;-61
2021/12/25 11:42:52;;;;;;;4.18;1.17;;;;;;;;;;5089792;28;20157;-61
2021/12/25 11:45:20;;;;;;;5.07;1.50;;;;;;;;;;5090466;28;20348;-62
2021/12/25 11:47:51;;;;;;;4.00;1.13;;;;;;;;;;5089178;28;20051;-62
2021/12/25 11:50:21;;;;;;;6.88;1.20;;;;;;;;;;5091467;28;21721;-62
2021/12/25 11:53:17;;;;;;;5.28;1.05;;;;;;;;;;5091488;28;20036;-63
2021/12/25 11:58:38;;;;;;;4.10;1.00;;;;;;;;;;5083390;28;20053;-63
2021/12/25 12:01:21;;;;;;;3.80;1.23;;;;;;;;;;5087667;28;20368;-62
2021/12/25 12:03:54;;;;;;;3.60;0.95;;;;;;;;;;5088300;28;20391;-62
2021/12/25 12:06:20;;;;;;;3.78;1.17;;;;;;;;;;5087762;28;20146;-62
2021/12/25 12:08:53;;;;;;;8.13;1.85;;;;;;;;;;5097976;27;20036;-62
2021/12/25 12:11:21;;;;;;;3.42;0.80;;;;;;;;;;5091409;28;20125;-62
2021/12/25 12:13:47;;;;;;;3.47;0.90;;;;;;;;;;5098541;28;20047;-63
2021/12/25 12:16:13;;;;;;;8.82;0.93;;;;;;;;;;5090752;28;20032;-63
2021/12/25 12:18:41;;;;;;;4.82;1.23;;;;;;;;;;5095397;28;20046;-63
2021/12/25 12:21:16;;;;;;;4.00;0.88;;;;;;;;;;5090459;28;20047;-63
2021/12/25 12:24:10;;;;;;;5.47;1.00;;;;;;;;;;5094559;28;20117;-63
2021/12/25 12:26:47;;;;;;;3.33;0.98;;;;;;;;;;5086926;28;20440;-62
2021/12/25 12:29:14;;;;;;;5.78;1.30;;;;;;;;;;5088476;28;20116;-62
2021/12/25 12:31:43;;;;;;;7.72;0.90;;;;;;;;;;5091720;28;20031;-62
2021/12/25 12:34:28;;;;;;;3.55;1.02;;;;;;;;;;5086587;28;20127;-62
2021/12/25 12:37:14;;;;;;;4.13;1.27;;;;;;;;;;5087371;28;20043;-61
2021/12/25 12:39:43;;;;;;;5.32;1.23;;;;;;;;;;5086039;28;20074;-65
2021/12/25 12:42:12;;;;;;;2.53;0.90;;;;;;;;;;5080688;28;20044;-61
2021/12/25 12:44:39;;;;;;;2.10;0.65;;;;;;;;;;5085203;28;20079;-61
2021/12/25 12:47:07;;;;;;;3.33;0.90;;;;;;;;;;5088839;28;20043;-61
2021/12/25 12:49:54;;;;;;;4.78;1.10;;;;;;;;;;5089234;28;20090;-61
2021/12/25 12:52:23;;;;;;;3.03;1.13;;;;;;;;;;5090396;28;20079;-61
2021/12/25 12:54:49;;;;;;;3.33;1.00;;;;;;;;;;5092249;28;20123;-61
2021/12/25 12:57:18;;;;;;;8.18;1.77;;;;;;;;;;5094856;28;20101;-61
2021/12/25 12:59:45;;;;;;;3.45;1.00;;;;;;;;;;5086780;28;20145;-61
2021/12/25 13:02:12;;;;;;;6.38;1.15;;;;;;;;;;5090853;28;20074;-61
2021/12/25 13:04:45;;;;;;;6.07;1.10;;;;;;;;;;5084698;28;20067;-62
2021/12/25 13:07:13;;;;;;;3.60;1.05;;;;;;;;;;5083020;28;20084;-62
2021/12/25 13:09:44;;;;;;;4.18;1.13;;;;;;;;;;5084024;28;20409;-62
2021/12/25 13:12:24;;;;;;;4.68;2.13;;;;;;;;;;5088859;28;20044;-61
2021/12/25 13:14:57;;;;;;;4.32;1.40;;;;;;;;;;5081832;28;20496;-61
2021/12/25 13:17:23;;;;;;;6.03;1.30;;;;;;;;;;5092780;28;20094;-61
2021/12/25 13:19:49;;;;;;;6.05;1.30;;;;;;;;;;5086787;28;20048;-61
2021/12/25 13:22:16;;;;;;;7.97;1.27;;;;;;;;;;5092815;28;20117;-62
2021/12/25 13:24:42;;;;;;;4.47;1.17;;;;;;;;;;5093968;28;20131;-61
2021/12/25 13:27:16;;;;;;;4.00;0.90;;;;;;;;;;5087385;28;20067;-60
2021/12/25 13:29:42;;;;;;;5.43;1.45;;;;;;;;;;5084706;28;20040;-61
2021/12/25 13:32:09;;;;;;;5.13;1.15;;;;;;;;;;5083826;28;20524;-61
2021/12/25 13:34:37;;;;;;;5.15;1.45;;;;;;;;;;5084935;28;20040;-61
2021/12/25 13:37:06;;;;;;;4.05;1.75;;;;;;;;;;5087010;28;20051;-60
2021/12/25 13:39:35;;;;;;;3.78;1.23;;;;;;;;;;5093781;28;20514;-60
2021/12/25 13:42:10;;;;;;;6.60;1.33;;;;;;;;;;5087311;28;20059;-61
2021/12/25 13:44:37;;;;;;;9.48;1.90;;;;;;;;;;5088065;28;20098;-60
2021/12/25 13:47:05;;;;;;;4.32;1.30;;;;;;;;;;5087114;28;20067;-60
2021/12/25 13:49:37;;;;;;;3.72;1.20;;;;;;;;;;5090118;28;20052;-60
2021/12/25 13:52:06;;;;;;;5.57;1.52;;;;;;;;;;5084771;28;20043;-60
2021/12/25 13:54:33;;;;;;;4.80;0.90;;;;;;;;;;5089387;28;20044;-60
2021/12/25 13:56:59;;;;;;;4.80;1.17;;;;;;;;;;5089001;28;20040;-60
2021/12/25 13:59:25;;;;;;;4.53;1.27;;;;;;;;;;5089318;28;20078;-60
2021/12/25 14:01:56;;;;;;;3.30;1.00;;;;;;;;;;5096919;28;20044;-60
2021/12/25 14:04:22;;;;;;;7.28;1.20;;;;;;;;;;5089350;28;20048;-60
2021/12/25 14:06:49;;;;;;;3.50;1.00;;;;;;;;;;5085819;28;20044;-60
2021/12/25 14:09:15;;;;;;;7.43;2.33;;;;;;;;;;5090560;28;20051;-60
2021/12/25 14:11:52;;;;;;;3.70;1.27;;;;;;;;;;5085945;28;20077;-60
2021/12/25 14:14:19;;;;;;;5.22;1.15;;;;;;;;;;5089117;28;20044;-60
2021/12/25 14:16:45;;;;;;;5.82;1.00;;;;;;;;;;5094308;28;20060;-60
2021/12/25 14:19:13;;;;;;;3.75;1.20;;;;;;;;;;5089275;28;20051;-60
2021/12/25 14:21:40;;;;;;;3.38;1.00;;;;;;;;;;5087124;28;20036;-60
2021/12/25 14:24:14;;;;;;;4.82;1.10;;;;;;;;;;5090751;28;20515;-60
2021/12/25 14:26:42;;;;;;;3.08;0.98;;;;;;;;;;5085560;28;20100;-60
2021/12/25 14:29:22;;;;;;;3.63;1.17;;;;;;;;;;5093958;28;20040;-60
2021/12/25 14:31:48;;;;;;;5.50;1.70;;;;;;;;;;5095900;28;20348;-60
2021/12/25 14:34:14;;;;;;;4.75;1.05;;;;;;;;;;5100539;28;20051;-60
2021/12/25 14:36:42;;;;;;;5.13;1.77;;;;;;;;;;5103384;28;20046;-60
2021/12/25 14:39:09;;;;;;;6.93;1.40;;;;;;;;;;5095798;28;20048;-60
2021/12/25 14:41:36;;;;;;;5.53;1.13;;;;;;;;;;5100622;28;20032;-60
2021/12/25 14:44:18;;;;;;;6.65;1.40;;;;;;;;;;5100361;28;20036;-60
2021/12/25 14:46:44;;;;;;;4.35;1.00;;;;;;;;;;5101653;28;20046;-60
2021/12/25 14:49:10;;;;;;;6.85;1.42;;;;;;;;;;5096298;28;20169;-60
2021/12/25 14:51:37;;;;;;;6.15;1.40;;;;;;;;;;5103626;28;20035;-60
2021/12/25 14:54:04;;;;;;;3.80;1.50;;;;;;;;;;5096025;28;20044;-60
2021/12/25 14:56:33;;;;;;;4.13;1.30;;;;;;;;;;5094613;28;20062;-60
2021/12/25 14:59:02;;;;;;;3.70;1.15;;;;;;;;;;5092567;28;20051;-60
2021/12/25 15:01:29;;;;;;;4.38;1.40;;;;;;;;;;5093655;28;20039;-60
2021/12/25 15:04:04;;;;;;;4.53;1.10;;;;;;;;;;5092440;28;20051;-60
2021/12/25 15:06:31;;;;;;;8.25;1.10;;;;;;;;;;5094832;28;20052;-60
2021/12/25 15:08:59;;;;;;;4.47;1.58;;;;;;;;;;5097752;28;20027;-60
2021/12/25 15:11:30;;;;;;;5.95;1.25;;;;;;;;;;5092554;28;20497;-60
2021/12/25 15:13:59;;;;;;;3.65;1.50;;;;;;;;;;5098485;28;20036;-60
2021/12/25 15:16:39;;;;;;;5.90;1.35;;;;;;;;;;5096936;28;20048;-60
2021/12/25 15:19:05;;;;;;;6.60;1.40;;;;;;;;;;5089237;28;20441;-60
2021/12/25 15:21:41;;;;;;;7.38;1.35;;;;;;;;;;5091311;28;20036;-60
2021/12/25 15:24:11;;;;;;;5.70;1.30;;;;;;;;;;5102749;28;20044;-60
2021/12/25 15:26:40;;;;;;;4.47;1.65;;;;;;;;;;5095943;28;20475;-60
2021/12/25 15:29:06;;;;;;;3.47;1.42;;;;;;;;;;5096020;28;20048;-60
2021/12/25 15:31:33;;;;;;;4.55;1.35;;;;;;;;;;5094112;28;20131;-60
2021/12/25 15:34:01;;;;;;;4.97;1.30;;;;;;;;;;5097213;28;20048;-60
2021/12/25 15:36:29;;;;;;;6.50;1.40;;;;;;;;;;5101380;28;20093;-59
2021/12/25 15:38:55;;;;;;;2.30;1.08;;;;;;;;;;5089649;28;20036;-60
2021/12/25 15:41:22;;;;;;;6.03;1.40;;;;;;;;;;5093853;28;20048;-60
2021/12/25 15:43:48;;;;;;;3.00;1.10;;;;;;;;;;5090982;28;20048;-60
2021/12/25 15:46:15;;;;;;;9.77;1.90;;;;;;;;;;5091243;28;20040;-60
2021/12/25 15:48:42;;;;;;;4.55;1.33;;;;;;;;;;5095605;28;20121;-60
2021/12/25 15:51:10;;;;;;;5.10;1.10;;;;;;;;;;5089571;28;20124;-60
2021/12/25 15:53:37;;;;;;;5.50;1.33;;;;;;;;;;5099564;28;20036;-60
2021/12/25 15:56:03;;;;;;;4.95;1.38;;;;;;;;;;5095272;28;20032;-60
2021/12/25 15:58:29;;;;;;;7.85;1.80;;;;;;;;;;5099444;28;20052;-61